sensor_id;sensor_type;location;lat;lon;timestamp;P1;durP1;ratioP1;P2;durP2;ratioP2
69502;SDS011;56704;54.242;12.442;2022-08-25T00:01:47;11.17;;;5.57;;
69502;SDS011;56704;54.242;12.442;2022-08-25T00:04:16;9.73;;;4.60;;
69502;SDS011;56704;54.242;12.442;2022-08-25T00:06:44;9.82;;;5.10;;
69502;SDS011;56704;54.242;12.442;2022-08-25T00:09:11;8.25;;;4.57;;
69502;SDS011;56704;54.242;12.442;2022-08-25T00:11:40;10.52;;;5.30;;
69502;SDS011;56704;54.242;12.442;2022-08-25T00:14:09;9.33;;;5.00;;
69502;SDS011;56704;54.242;12.442;2022-08-25T00:16:37;11.68;;;5.30;;
69502;SDS011;56704;54.242;12.442;2022-08-25T00:19:06;8.43;;;4.97;;
69502;SDS011;56704;54.242;12.442;2022-08-25T00:21:35;10.50;;;4.65;;
69502;SDS011;56704;54.242;12.442;2022-08-25T00:24:03;8.18;;;4.03;;
69502;SDS011;56704;54.242;12.442;2022-08-25T00:26:30;7.73;;;4.77;;
69502;SDS011;56704;54.242;12.442;2022-08-25T00:28:58;9.13;;;4.57;;
69502;SDS011;56704;54.242;12.442;2022-08-25T00:31:24;8.52;;;4.18;;
69502;SDS011;56704;54.242;12.442;2022-08-25T00:33:51;8.07;;;5.10;;
69502;SDS011;56704;54.242;12.442;2022-08-25T00:36:19;7.65;;;4.03;;
69502;SDS011;56704;54.242;12.442;2022-08-25T00:38:46;6.47;;;3.73;;
69502;SDS011;56704;54.242;12.442;2022-08-25T00:41:16;7.05;;;4.00;;
69502;SDS011;56704;54.242;12.442;2022-08-25T00:43:47;8.05;;;4.40;;
69502;SDS011;56704;54.242;12.442;2022-08-25T00:46:18;7.22;;;3.50;;
69502;SDS011;56704;54.242;12.442;2022-08-25T00:48:48;7.97;;;4.13;;
69502;SDS011;56704;54.242;12.442;2022-08-25T00:51:20;9.73;;;4.63;;
69502;SDS011;56704;54.242;12.442;2022-08-25T00:53:52;7.35;;;3.85;;
69502;SDS011;56704;54.242;12.442;2022-08-25T00:56:19;10.65;;;4.50;;
69502;SDS011;56704;54.242;12.442;2022-08-25T00:58:46;9.38;;;4.53;;
69502;SDS011;56704;54.242;12.442;2022-08-25T01:01:12;7.55;;;4.40;;
69502;SDS011;56704;54.242;12.442;2022-08-25T01:03:40;8.10;;;4.87;;
69502;SDS011;56704;54.242;12.442;2022-08-25T01:06:07;7.25;;;4.18;;
69502;SDS011;56704;54.242;12.442;2022-08-25T01:08:36;7.45;;;3.97;;
69502;SDS011;56704;54.242;12.442;2022-08-25T01:11:04;9.40;;;4.53;;
69502;SDS011;56704;54.242;12.442;2022-08-25T01:13:34;7.07;;;3.95;;
69502;SDS011;56704;54.242;12.442;2022-08-25T01:16:04;7.50;;;4.83;;
69502;SDS011;56704;54.242;12.442;2022-08-25T01:18:42;6.53;;;3.72;;
69502;SDS011;56704;54.242;12.442;2022-08-25T01:21:13;7.68;;;3.67;;
69502;SDS011;56704;54.242;12.442;2022-08-25T01:23:42;8.00;;;4.28;;
69502;SDS011;56704;54.242;12.442;2022-08-25T01:26:09;7.13;;;3.83;;
69502;SDS011;56704;54.242;12.442;2022-08-25T01:28:39;7.90;;;3.67;;
69502;SDS011;56704;54.242;12.442;2022-08-25T01:31:26;6.25;;;3.53;;
69502;SDS011;56704;54.242;12.442;2022-08-25T01:33:54;7.07;;;3.72;;
69502;SDS011;56704;54.242;12.442;2022-08-25T01:36:22;6.55;;;3.88;;
69502;SDS011;56704;54.242;12.442;2022-08-25T01:38:49;9.38;;;4.38;;
69502;SDS011;56704;54.242;12.442;2022-08-25T01:41:16;8.47;;;4.70;;
69502;SDS011;56704;54.242;12.442;2022-08-25T01:43:50;7.68;;;4.25;;
69502;SDS011;56704;54.242;12.442;2022-08-25T01:46:17;8.80;;;4.90;;
69502;SDS011;56704;54.242;12.442;2022-08-25T01:48:43;9.27;;;4.75;;
69502;SDS011;56704;54.242;12.442;2022-08-25T01:51:10;10.45;;;5.07;;
69502;SDS011;56704;54.242;12.442;2022-08-25T01:53:38;7.83;;;4.50;;
69502;SDS011;56704;54.242;12.442;2022-08-25T01:56:08;9.30;;;4.50;;
69502;SDS011;56704;54.242;12.442;2022-08-25T01:58:38;9.13;;;4.65;;
69502;SDS011;56704;54.242;12.442;2022-08-25T02:01:07;8.80;;;4.78;;
69502;SDS011;56704;54.242;12.442;2022-08-25T02:03:36;11.13;;;5.22;;
69502;SDS011;56704;54.242;12.442;2022-08-25T02:06:04;10.40;;;5.43;;
69502;SDS011;56704;54.242;12.442;2022-08-25T02:08:31;9.60;;;5.63;;
69502;SDS011;56704;54.242;12.442;2022-08-25T02:11:00;9.30;;;5.07;;
69502;SDS011;56704;54.242;12.442;2022-08-25T02:13:27;8.15;;;4.60;;
69502;SDS011;56704;54.242;12.442;2022-08-25T02:15:54;9.10;;;4.68;;
69502;SDS011;56704;54.242;12.442;2022-08-25T02:18:23;7.23;;;4.33;;
69502;SDS011;56704;54.242;12.442;2022-08-25T02:20:49;7.55;;;4.18;;
69502;SDS011;56704;54.242;12.442;2022-08-25T02:23:16;8.65;;;4.30;;
69502;SDS011;56704;54.242;12.442;2022-08-25T02:25:42;9.75;;;4.65;;
69502;SDS011;56704;54.242;12.442;2022-08-25T02:28:10;6.60;;;3.88;;
69502;SDS011;56704;54.242;12.442;2022-08-25T02:30:37;8.10;;;4.30;;
69502;SDS011;56704;54.242;12.442;2022-08-25T02:33:06;8.88;;;4.25;;
69502;SDS011;56704;54.242;12.442;2022-08-25T02:35:33;7.10;;;4.35;;
69502;SDS011;56704;54.242;12.442;2022-08-25T02:38:00;8.75;;;4.35;;
69502;SDS011;56704;54.242;12.442;2022-08-25T02:40:27;7.97;;;4.55;;
69502;SDS011;56704;54.242;12.442;2022-08-25T02:42:54;8.03;;;4.37;;
69502;SDS011;56704;54.242;12.442;2022-08-25T02:45:22;7.18;;;4.18;;
69502;SDS011;56704;54.242;12.442;2022-08-25T02:47:49;7.72;;;4.40;;
69502;SDS011;56704;54.242;12.442;2022-08-25T02:50:15;7.22;;;3.97;;
69502;SDS011;56704;54.242;12.442;2022-08-25T02:52:42;7.35;;;3.95;;
69502;SDS011;56704;54.242;12.442;2022-08-25T02:55:10;7.37;;;4.23;;
69502;SDS011;56704;54.242;12.442;2022-08-25T02:57:38;9.25;;;4.30;;
69502;SDS011;56704;54.242;12.442;2022-08-25T03:00:05;8.57;;;4.22;;
69502;SDS011;56704;54.242;12.442;2022-08-25T03:02:34;7.00;;;3.65;;
69502;SDS011;56704;54.242;12.442;2022-08-25T03:05:00;9.02;;;4.30;;
69502;SDS011;56704;54.242;12.442;2022-08-25T03:07:27;7.07;;;4.37;;
69502;SDS011;56704;54.242;12.442;2022-08-25T03:09:54;8.40;;;4.30;;
69502;SDS011;56704;54.242;12.442;2022-08-25T03:12:20;7.65;;;3.90;;
69502;SDS011;56704;54.242;12.442;2022-08-25T03:14:47;9.02;;;4.00;;
69502;SDS011;56704;54.242;12.442;2022-08-25T03:17:13;11.88;;;4.65;;
69502;SDS011;56704;54.242;12.442;2022-08-25T03:19:41;9.00;;;4.57;;
69502;SDS011;56704;54.242;12.442;2022-08-25T03:22:08;8.48;;;5.20;;
69502;SDS011;56704;54.242;12.442;2022-08-25T03:24:34;11.60;;;4.97;;
69502;SDS011;56704;54.242;12.442;2022-08-25T03:27:01;10.30;;;4.75;;
69502;SDS011;56704;54.242;12.442;2022-08-25T03:29:27;8.43;;;4.40;;
69502;SDS011;56704;54.242;12.442;2022-08-25T03:31:56;11.18;;;5.10;;
69502;SDS011;56704;54.242;12.442;2022-08-25T03:34:24;9.82;;;5.60;;
69502;SDS011;56704;54.242;12.442;2022-08-25T03:36:54;9.73;;;5.25;;
69502;SDS011;56704;54.242;12.442;2022-08-25T03:39:23;7.80;;;4.60;;
69502;SDS011;56704;54.242;12.442;2022-08-25T03:41:50;11.23;;;5.10;;
69502;SDS011;56704;54.242;12.442;2022-08-25T03:44:18;9.85;;;5.55;;
69502;SDS011;56704;54.242;12.442;2022-08-25T03:46:47;12.10;;;5.18;;
69502;SDS011;56704;54.242;12.442;2022-08-25T03:49:16;11.93;;;6.10;;
69502;SDS011;56704;54.242;12.442;2022-08-25T03:51:47;11.93;;;5.93;;
69502;SDS011;56704;54.242;12.442;2022-08-25T03:54:18;11.85;;;5.90;;
69502;SDS011;56704;54.242;12.442;2022-08-25T03:56:47;13.40;;;6.90;;
69502;SDS011;56704;54.242;12.442;2022-08-25T03:59:13;11.57;;;6.07;;
69502;SDS011;56704;54.242;12.442;2022-08-25T04:01:40;10.77;;;6.18;;
69502;SDS011;56704;54.242;12.442;2022-08-25T04:04:08;10.63;;;5.97;;
69502;SDS011;56704;54.242;12.442;2022-08-25T04:06:37;10.65;;;5.90;;
69502;SDS011;56704;54.242;12.442;2022-08-25T04:09:03;13.00;;;6.30;;
69502;SDS011;56704;54.242;12.442;2022-08-25T04:11:31;10.43;;;5.63;;
69502;SDS011;56704;54.242;12.442;2022-08-25T04:13:59;9.73;;;5.97;;
69502;SDS011;56704;54.242;12.442;2022-08-25T04:16:27;10.43;;;5.77;;
69502;SDS011;56704;54.242;12.442;2022-08-25T04:18:58;12.65;;;5.85;;
69502;SDS011;56704;54.242;12.442;2022-08-25T04:21:26;12.30;;;6.03;;
69502;SDS011;56704;54.242;12.442;2022-08-25T04:23:53;11.93;;;6.50;;
69502;SDS011;56704;54.242;12.442;2022-08-25T04:26:22;11.15;;;5.85;;
69502;SDS011;56704;54.242;12.442;2022-08-25T04:28:52;10.37;;;6.43;;
69502;SDS011;56704;54.242;12.442;2022-08-25T04:31:20;12.05;;;6.03;;
69502;SDS011;56704;54.242;12.442;2022-08-25T04:33:47;10.93;;;6.90;;
69502;SDS011;56704;54.242;12.442;2022-08-25T04:36:15;14.35;;;6.85;;
69502;SDS011;56704;54.242;12.442;2022-08-25T04:38:42;15.95;;;7.43;;
69502;SDS011;56704;54.242;12.442;2022-08-25T04:41:10;13.77;;;6.77;;
69502;SDS011;56704;54.242;12.442;2022-08-25T04:43:38;12.20;;;6.40;;
69502;SDS011;56704;54.242;12.442;2022-08-25T04:46:08;12.25;;;7.03;;
69502;SDS011;56704;54.242;12.442;2022-08-25T04:48:36;12.48;;;6.82;;
69502;SDS011;56704;54.242;12.442;2022-08-25T04:51:04;13.13;;;6.65;;
69502;SDS011;56704;54.242;12.442;2022-08-25T04:53:31;16.07;;;6.90;;
69502;SDS011;56704;54.242;12.442;2022-08-25T04:55:57;12.75;;;6.47;;
69502;SDS011;56704;54.242;12.442;2022-08-25T04:58:24;15.38;;;7.68;;
69502;SDS011;56704;54.242;12.442;2022-08-25T05:00:51;14.77;;;6.97;;
69502;SDS011;56704;54.242;12.442;2022-08-25T05:03:19;13.32;;;7.70;;
69502;SDS011;56704;54.242;12.442;2022-08-25T05:05:46;10.97;;;6.40;;
69502;SDS011;56704;54.242;12.442;2022-08-25T05:08:12;14.50;;;7.30;;
69502;SDS011;56704;54.242;12.442;2022-08-25T05:10:39;12.70;;;6.10;;
69502;SDS011;56704;54.242;12.442;2022-08-25T05:13:07;10.98;;;6.50;;
69502;SDS011;56704;54.242;12.442;2022-08-25T05:15:33;12.57;;;6.72;;
69502;SDS011;56704;54.242;12.442;2022-08-25T05:18:15;11.37;;;6.53;;
69502;SDS011;56704;54.242;12.442;2022-08-25T05:20:44;13.43;;;6.88;;
69502;SDS011;56704;54.242;12.442;2022-08-25T05:23:11;9.57;;;5.90;;
69502;SDS011;56704;54.242;12.442;2022-08-25T05:25:37;10.52;;;6.03;;
69502;SDS011;56704;54.242;12.442;2022-08-25T05:28:04;11.65;;;5.95;;
69502;SDS011;56704;54.242;12.442;2022-08-25T05:30:30;11.37;;;6.30;;
69502;SDS011;56704;54.242;12.442;2022-08-25T05:32:57;11.52;;;6.65;;
69502;SDS011;56704;54.242;12.442;2022-08-25T05:35:23;11.77;;;7.32;;
69502;SDS011;56704;54.242;12.442;2022-08-25T05:37:51;12.65;;;6.15;;
69502;SDS011;56704;54.242;12.442;2022-08-25T05:40:19;10.60;;;5.95;;
69502;SDS011;56704;54.242;12.442;2022-08-25T05:42:45;12.77;;;6.30;;
69502;SDS011;56704;54.242;12.442;2022-08-25T05:45:12;9.85;;;6.10;;
69502;SDS011;56704;54.242;12.442;2022-08-25T05:47:39;11.27;;;7.07;;
69502;SDS011;56704;54.242;12.442;2022-08-25T05:50:06;11.73;;;6.55;;
69502;SDS011;56704;54.242;12.442;2022-08-25T05:52:34;12.50;;;6.82;;
69502;SDS011;56704;54.242;12.442;2022-08-25T05:55:02;12.27;;;6.47;;
69502;SDS011;56704;54.242;12.442;2022-08-25T05:57:29;13.40;;;6.72;;
69502;SDS011;56704;54.242;12.442;2022-08-25T05:59:56;13.20;;;6.40;;
69502;SDS011;56704;54.242;12.442;2022-08-25T06:02:22;14.27;;;7.50;;
69502;SDS011;56704;54.242;12.442;2022-08-25T06:05:08;10.25;;;6.07;;
69502;SDS011;56704;54.242;12.442;2022-08-25T06:07:36;12.93;;;7.30;;
69502;SDS011;56704;54.242;12.442;2022-08-25T06:10:05;11.45;;;7.50;;
69502;SDS011;56704;54.242;12.442;2022-08-25T06:12:35;10.93;;;7.35;;
69502;SDS011;56704;54.242;12.442;2022-08-25T06:15:03;13.75;;;7.95;;
69502;SDS011;56704;54.242;12.442;2022-08-25T06:17:30;12.90;;;6.88;;
69502;SDS011;56704;54.242;12.442;2022-08-25T06:19:58;11.30;;;6.43;;
69502;SDS011;56704;54.242;12.442;2022-08-25T06:22:25;10.48;;;5.65;;
69502;SDS011;56704;54.242;12.442;2022-08-25T06:24:52;10.65;;;6.40;;
69502;SDS011;56704;54.242;12.442;2022-08-25T06:27:20;10.93;;;5.85;;
69502;SDS011;56704;54.242;12.442;2022-08-25T06:29:46;13.15;;;6.28;;
69502;SDS011;56704;54.242;12.442;2022-08-25T06:32:13;10.23;;;5.23;;
69502;SDS011;56704;54.242;12.442;2022-08-25T06:34:39;10.32;;;5.63;;
69502;SDS011;56704;54.242;12.442;2022-08-25T06:37:06;9.57;;;5.35;;
69502;SDS011;56704;54.242;12.442;2022-08-25T06:39:32;10.73;;;5.60;;
69502;SDS011;56704;54.242;12.442;2022-08-25T06:41:59;11.02;;;5.25;;
69502;SDS011;56704;54.242;12.442;2022-08-25T06:44:27;9.57;;;4.90;;
69502;SDS011;56704;54.242;12.442;2022-08-25T06:46:54;8.38;;;5.22;;
69502;SDS011;56704;54.242;12.442;2022-08-25T06:49:21;8.55;;;4.68;;
69502;SDS011;56704;54.242;12.442;2022-08-25T06:51:51;10.65;;;5.10;;
69502;SDS011;56704;54.242;12.442;2022-08-25T06:54:18;9.18;;;4.28;;
69502;SDS011;56704;54.242;12.442;2022-08-25T06:56:44;8.20;;;4.53;;
69502;SDS011;56704;54.242;12.442;2022-08-25T06:59:11;8.68;;;4.03;;
69502;SDS011;56704;54.242;12.442;2022-08-25T07:01:39;10.80;;;5.18;;
69502;SDS011;56704;54.242;12.442;2022-08-25T07:04:05;9.85;;;4.10;;
69502;SDS011;56704;54.242;12.442;2022-08-25T07:06:32;9.48;;;4.03;;
69502;SDS011;56704;54.242;12.442;2022-08-25T07:09:00;10.70;;;4.87;;
69502;SDS011;56704;54.242;12.442;2022-08-25T07:11:28;8.02;;;4.30;;
69502;SDS011;56704;54.242;12.442;2022-08-25T07:13:58;9.88;;;4.57;;
69502;SDS011;56704;54.242;12.442;2022-08-25T07:16:26;9.68;;;4.07;;
69502;SDS011;56704;54.242;12.442;2022-08-25T07:18:54;11.45;;;5.63;;
69502;SDS011;56704;54.242;12.442;2022-08-25T07:21:25;8.17;;;4.10;;
69502;SDS011;56704;54.242;12.442;2022-08-25T07:23:53;10.93;;;4.70;;
69502;SDS011;56704;54.242;12.442;2022-08-25T07:26:23;8.32;;;4.00;;
69502;SDS011;56704;54.242;12.442;2022-08-25T07:28:51;9.38;;;4.30;;
69502;SDS011;56704;54.242;12.442;2022-08-25T07:31:17;6.55;;;3.70;;
69502;SDS011;56704;54.242;12.442;2022-08-25T07:33:44;7.33;;;3.60;;
69502;SDS011;56704;54.242;12.442;2022-08-25T07:36:26;8.73;;;3.75;;
69502;SDS011;56704;54.242;12.442;2022-08-25T07:38:53;6.40;;;3.60;;
69502;SDS011;56704;54.242;12.442;2022-08-25T07:41:19;9.40;;;3.80;;
69502;SDS011;56704;54.242;12.442;2022-08-25T07:43:46;8.63;;;3.88;;
69502;SDS011;56704;54.242;12.442;2022-08-25T07:46:13;6.23;;;3.33;;
69502;SDS011;56704;54.242;12.442;2022-08-25T07:48:39;9.50;;;4.05;;
69502;SDS011;56704;54.242;12.442;2022-08-25T07:51:07;7.70;;;3.90;;
69502;SDS011;56704;54.242;12.442;2022-08-25T07:53:36;7.40;;;4.00;;
69502;SDS011;56704;54.242;12.442;2022-08-25T07:56:07;8.52;;;3.88;;
69502;SDS011;56704;54.242;12.442;2022-08-25T07:58:35;7.43;;;3.90;;
69502;SDS011;56704;54.242;12.442;2022-08-25T08:01:02;7.22;;;3.13;;
69502;SDS011;56704;54.242;12.442;2022-08-25T08:03:29;6.72;;;3.17;;
69502;SDS011;56704;54.242;12.442;2022-08-25T08:05:55;7.32;;;3.35;;
69502;SDS011;56704;54.242;12.442;2022-08-25T08:08:22;6.75;;;3.20;;
69502;SDS011;56704;54.242;12.442;2022-08-25T08:10:50;7.37;;;3.60;;
69502;SDS011;56704;54.242;12.442;2022-08-25T08:13:16;7.18;;;3.13;;
69502;SDS011;56704;54.242;12.442;2022-08-25T08:15:43;4.63;;;3.10;;
69502;SDS011;56704;54.242;12.442;2022-08-25T08:18:11;5.65;;;3.38;;
69502;SDS011;56704;54.242;12.442;2022-08-25T08:20:37;7.97;;;3.03;;
69502;SDS011;56704;54.242;12.442;2022-08-25T08:23:04;7.10;;;2.90;;
69502;SDS011;56704;54.242;12.442;2022-08-25T08:25:30;7.03;;;3.20;;
69502;SDS011;56704;54.242;12.442;2022-08-25T08:27:58;7.78;;;3.15;;
69502;SDS011;56704;54.242;12.442;2022-08-25T08:30:25;6.60;;;3.00;;
69502;SDS011;56704;54.242;12.442;2022-08-25T08:32:51;5.63;;;3.10;;
69502;SDS011;56704;54.242;12.442;2022-08-25T08:35:18;7.93;;;2.77;;
69502;SDS011;56704;54.242;12.442;2022-08-25T08:37:45;9.13;;;3.40;;
69502;SDS011;56704;54.242;12.442;2022-08-25T08:40:12;6.95;;;3.17;;
69502;SDS011;56704;54.242;12.442;2022-08-25T08:42:47;7.18;;;3.38;;
69502;SDS011;56704;54.242;12.442;2022-08-25T08:45:30;8.43;;;3.20;;
69502;SDS011;56704;54.242;12.442;2022-08-25T08:48:09;5.23;;;2.50;;
69502;SDS011;56704;54.242;12.442;2022-08-25T08:50:51;5.35;;;2.80;;
69502;SDS011;56704;54.242;12.442;2022-08-25T08:53:26;7.65;;;2.92;;
69502;SDS011;56704;54.242;12.442;2022-08-25T08:56:12;9.18;;;3.03;;
69502;SDS011;56704;54.242;12.442;2022-08-25T08:58:42;7.30;;;2.90;;
69502;SDS011;56704;54.242;12.442;2022-08-25T09:01:15;7.07;;;2.67;;
69502;SDS011;56704;54.242;12.442;2022-08-25T09:03:45;6.78;;;3.30;;
69502;SDS011;56704;54.242;12.442;2022-08-25T09:06:17;7.18;;;3.00;;
69502;SDS011;56704;54.242;12.442;2022-08-25T09:08:47;8.25;;;2.65;;
69502;SDS011;56704;54.242;12.442;2022-08-25T09:11:17;5.82;;;2.90;;
69502;SDS011;56704;54.242;12.442;2022-08-25T09:13:57;5.63;;;3.13;;
69502;SDS011;56704;54.242;12.442;2022-08-25T09:16:36;6.35;;;3.25;;
69502;SDS011;56704;54.242;12.442;2022-08-25T09:19:23;5.32;;;2.95;;
69502;SDS011;56704;54.242;12.442;2022-08-25T09:21:59;6.72;;;2.70;;
69502;SDS011;56704;54.242;12.442;2022-08-25T09:24:38;5.78;;;2.75;;
69502;SDS011;56704;54.242;12.442;2022-08-25T09:27:13;7.87;;;2.90;;
69502;SDS011;56704;54.242;12.442;2022-08-25T09:29:53;5.43;;;2.20;;
69502;SDS011;56704;54.242;12.442;2022-08-25T09:32:27;7.28;;;3.00;;
69502;SDS011;56704;54.242;12.442;2022-08-25T09:34:57;6.25;;;2.47;;
69502;SDS011;56704;54.242;12.442;2022-08-25T09:37:26;6.55;;;2.90;;
69502;SDS011;56704;54.242;12.442;2022-08-25T09:39:53;6.80;;;2.93;;
69502;SDS011;56704;54.242;12.442;2022-08-25T09:42:19;8.73;;;2.65;;
69502;SDS011;56704;54.242;12.442;2022-08-25T09:44:47;6.25;;;2.60;;
69502;SDS011;56704;54.242;12.442;2022-08-25T09:47:18;6.53;;;2.88;;
69502;SDS011;56704;54.242;12.442;2022-08-25T09:49:49;7.00;;;3.00;;
69502;SDS011;56704;54.242;12.442;2022-08-25T09:52:23;6.03;;;2.63;;
69502;SDS011;56704;54.242;12.442;2022-08-25T09:54:59;7.00;;;3.13;;
69502;SDS011;56704;54.242;12.442;2022-08-25T09:57:43;5.72;;;3.17;;
69502;SDS011;56704;54.242;12.442;2022-08-25T10:00:13;6.28;;;2.95;;
69502;SDS011;56704;54.242;12.442;2022-08-25T10:02:42;9.57;;;3.33;;
69502;SDS011;56704;54.242;12.442;2022-08-25T10:05:17;5.57;;;2.70;;
69502;SDS011;56704;54.242;12.442;2022-08-25T10:07:50;7.95;;;3.08;;
69502;SDS011;56704;54.242;12.442;2022-08-25T10:10:24;5.85;;;3.35;;
69502;SDS011;56704;54.242;12.442;2022-08-25T10:12:54;8.63;;;3.20;;
69502;SDS011;56704;54.242;12.442;2022-08-25T10:15:24;8.00;;;3.10;;
69502;SDS011;56704;54.242;12.442;2022-08-25T10:17:52;7.10;;;3.43;;
69502;SDS011;56704;54.242;12.442;2022-08-25T10:20:22;8.70;;;3.13;;
69502;SDS011;56704;54.242;12.442;2022-08-25T10:22:50;7.40;;;2.95;;
69502;SDS011;56704;54.242;12.442;2022-08-25T10:25:21;6.75;;;3.30;;
69502;SDS011;56704;54.242;12.442;2022-08-25T10:27:53;6.97;;;3.03;;
69502;SDS011;56704;54.242;12.442;2022-08-25T10:30:35;8.27;;;2.90;;
69502;SDS011;56704;54.242;12.442;2022-08-25T10:33:18;6.47;;;2.78;;
69502;SDS011;56704;54.242;12.442;2022-08-25T10:35:58;7.03;;;3.05;;
69502;SDS011;56704;54.242;12.442;2022-08-25T10:38:35;7.43;;;3.33;;
69502;SDS011;56704;54.242;12.442;2022-08-25T10:41:09;7.60;;;2.85;;
69502;SDS011;56704;54.242;12.442;2022-08-25T10:43:48;5.23;;;2.70;;
69502;SDS011;56704;54.242;12.442;2022-08-25T10:46:23;7.78;;;3.55;;
69502;SDS011;56704;54.242;12.442;2022-08-25T10:48:58;6.90;;;3.30;;
69502;SDS011;56704;54.242;12.442;2022-08-25T10:51:37;6.05;;;2.78;;
69502;SDS011;56704;54.242;12.442;2022-08-25T10:54:13;6.65;;;2.60;;
69502;SDS011;56704;54.242;12.442;2022-08-25T10:56:56;8.80;;;2.97;;
69502;SDS011;56704;54.242;12.442;2022-08-25T10:59:29;6.95;;;3.40;;
69502;SDS011;56704;54.242;12.442;2022-08-25T11:05:14;5.28;;;2.65;;
69502;SDS011;56704;54.242;12.442;2022-08-25T11:07:48;5.13;;;2.60;;
69502;SDS011;56704;54.242;12.442;2022-08-25T11:10:19;8.50;;;2.97;;
69502;SDS011;56704;54.242;12.442;2022-08-25T11:12:52;7.85;;;3.00;;
69502;SDS011;56704;54.242;12.442;2022-08-25T11:15:22;7.63;;;3.28;;
69502;SDS011;56704;54.242;12.442;2022-08-25T11:17:52;10.45;;;3.50;;
69502;SDS011;56704;54.242;12.442;2022-08-25T11:20:23;9.00;;;3.35;;
69502;SDS011;56704;54.242;12.442;2022-08-25T11:22:56;6.93;;;2.60;;
69502;SDS011;56704;54.242;12.442;2022-08-25T11:25:34;6.90;;;2.40;;
69502;SDS011;56704;54.242;12.442;2022-08-25T11:28:07;8.98;;;3.15;;
69502;SDS011;56704;54.242;12.442;2022-08-25T11:30:37;7.03;;;2.97;;
69502;SDS011;56704;54.242;12.442;2022-08-25T11:33:05;6.65;;;2.83;;
69502;SDS011;56704;54.242;12.442;2022-08-25T11:35:35;7.20;;;2.90;;
69502;SDS011;56704;54.242;12.442;2022-08-25T11:38:16;7.28;;;3.28;;
69502;SDS011;56704;54.242;12.442;2022-08-25T11:40:55;7.63;;;3.50;;
69502;SDS011;56704;54.242;12.442;2022-08-25T11:43:34;9.07;;;3.60;;
69502;SDS011;56704;54.242;12.442;2022-08-25T11:46:31;8.32;;;3.20;;
69502;SDS011;56704;54.242;12.442;2022-08-25T11:49:12;5.40;;;3.17;;
69502;SDS011;56704;54.242;12.442;2022-08-25T11:51:50;11.30;;;3.35;;
69502;SDS011;56704;54.242;12.442;2022-08-25T11:54:20;8.85;;;3.60;;
69502;SDS011;56704;54.242;12.442;2022-08-25T11:56:50;7.57;;;2.90;;
69502;SDS011;56704;54.242;12.442;2022-08-25T12:02:32;8.73;;;4.17;;
69502;SDS011;56704;54.242;12.442;2022-08-25T12:05:01;5.28;;;2.63;;
69502;SDS011;56704;54.242;12.442;2022-08-25T12:11:00;6.57;;;2.80;;
69502;SDS011;56704;54.242;12.442;2022-08-25T12:19:25;8.25;;;2.70;;
69502;SDS011;56704;54.242;12.442;2022-08-25T12:25:19;5.22;;;2.80;;
69502;SDS011;56704;54.242;12.442;2022-08-25T12:28:00;5.93;;;2.90;;
69502;SDS011;56704;54.242;12.442;2022-08-25T12:30:36;4.90;;;2.77;;
69502;SDS011;56704;54.242;12.442;2022-08-25T12:33:10;7.88;;;2.63;;
69502;SDS011;56704;54.242;12.442;2022-08-25T12:35:50;5.07;;;2.30;;
69502;SDS011;56704;54.242;12.442;2022-08-25T12:38:26;6.93;;;2.50;;
69502;SDS011;56704;54.242;12.442;2022-08-25T12:40:57;8.05;;;2.63;;
69502;SDS011;56704;54.242;12.442;2022-08-25T12:43:30;6.83;;;2.90;;
69502;SDS011;56704;54.242;12.442;2022-08-25T12:49:01;6.70;;;2.80;;
69502;SDS011;56704;54.242;12.442;2022-08-25T12:51:50;6.22;;;2.40;;
69502;SDS011;56704;54.242;12.442;2022-08-25T12:54:20;9.93;;;2.85;;
69502;SDS011;56704;54.242;12.442;2022-08-25T12:56:52;7.60;;;2.60;;
69502;SDS011;56704;54.242;12.442;2022-08-25T12:59:30;9.23;;;2.90;;
69502;SDS011;56704;54.242;12.442;2022-08-25T13:02:05;4.60;;;2.60;;
69502;SDS011;56704;54.242;12.442;2022-08-25T13:08:05;8.13;;;2.85;;
69502;SDS011;56704;54.242;12.442;2022-08-25T13:10:50;6.00;;;2.60;;
69502;SDS011;56704;54.242;12.442;2022-08-25T13:13:23;7.25;;;2.53;;
69502;SDS011;56704;54.242;12.442;2022-08-25T13:16:05;6.30;;;2.50;;
69502;SDS011;56704;54.242;12.442;2022-08-25T13:18:34;6.85;;;2.50;;
69502;SDS011;56704;54.242;12.442;2022-08-25T13:21:03;6.65;;;3.20;;
69502;SDS011;56704;54.242;12.442;2022-08-25T13:23:34;9.00;;;3.10;;
69502;SDS011;56704;54.242;12.442;2022-08-25T13:26:02;7.03;;;2.78;;
69502;SDS011;56704;54.242;12.442;2022-08-25T13:28:31;6.47;;;2.50;;
69502;SDS011;56704;54.242;12.442;2022-08-25T13:31:02;8.80;;;2.78;;
69502;SDS011;56704;54.242;12.442;2022-08-25T13:33:33;5.45;;;2.30;;
69502;SDS011;56704;54.242;12.442;2022-08-25T13:36:01;5.70;;;2.60;;
69502;SDS011;56704;54.242;12.442;2022-08-25T13:38:46;5.75;;;2.50;;
69502;SDS011;56704;54.242;12.442;2022-08-25T13:41:18;5.35;;;2.60;;
69502;SDS011;56704;54.242;12.442;2022-08-25T13:43:48;6.68;;;2.53;;
69502;SDS011;56704;54.242;12.442;2022-08-25T13:46:20;4.93;;;2.70;;
69502;SDS011;56704;54.242;12.442;2022-08-25T13:48:48;7.87;;;2.63;;
69502;SDS011;56704;54.242;12.442;2022-08-25T13:51:17;4.93;;;2.30;;
69502;SDS011;56704;54.242;12.442;2022-08-25T13:53:47;5.93;;;2.53;;
69502;SDS011;56704;54.242;12.442;2022-08-25T13:56:22;7.15;;;3.00;;
69502;SDS011;56704;54.242;12.442;2022-08-25T13:58:50;5.55;;;2.03;;
69502;SDS011;56704;54.242;12.442;2022-08-25T14:01:18;6.23;;;2.60;;
69502;SDS011;56704;54.242;12.442;2022-08-25T14:03:49;6.18;;;2.33;;
69502;SDS011;56704;54.242;12.442;2022-08-25T14:06:19;7.28;;;2.90;;
69502;SDS011;56704;54.242;12.442;2022-08-25T14:08:48;5.82;;;2.75;;
69502;SDS011;56704;54.242;12.442;2022-08-25T14:11:31;5.55;;;2.50;;
69502;SDS011;56704;54.242;12.442;2022-08-25T14:14:00;6.90;;;2.70;;
69502;SDS011;56704;54.242;12.442;2022-08-25T14:16:29;6.28;;;2.90;;
69502;SDS011;56704;54.242;12.442;2022-08-25T14:19:00;7.50;;;2.65;;
69502;SDS011;56704;54.242;12.442;2022-08-25T14:21:29;5.47;;;2.40;;
69502;SDS011;56704;54.242;12.442;2022-08-25T14:23:58;10.05;;;2.55;;
69502;SDS011;56704;54.242;12.442;2022-08-25T14:26:25;5.40;;;2.10;;
69502;SDS011;56704;54.242;12.442;2022-08-25T14:28:51;4.40;;;2.28;;
69502;SDS011;56704;54.242;12.442;2022-08-25T14:31:20;7.95;;;2.67;;
69502;SDS011;56704;54.242;12.442;2022-08-25T14:33:53;6.07;;;2.83;;
69502;SDS011;56704;54.242;12.442;2022-08-25T14:36:22;7.45;;;2.40;;
69502;SDS011;56704;54.242;12.442;2022-08-25T14:38:50;7.57;;;2.80;;
69502;SDS011;56704;54.242;12.442;2022-08-25T14:41:18;9.18;;;2.60;;
69502;SDS011;56704;54.242;12.442;2022-08-25T14:43:46;5.97;;;2.25;;
69502;SDS011;56704;54.242;12.442;2022-08-25T14:46:13;4.80;;;2.50;;
69502;SDS011;56704;54.242;12.442;2022-08-25T14:48:44;7.10;;;2.90;;
69502;SDS011;56704;54.242;12.442;2022-08-25T14:51:15;7.33;;;2.63;;
69502;SDS011;56704;54.242;12.442;2022-08-25T14:53:42;5.55;;;2.60;;
69502;SDS011;56704;54.242;12.442;2022-08-25T14:56:09;8.20;;;2.95;;
69502;SDS011;56704;54.242;12.442;2022-08-25T14:58:35;8.73;;;3.17;;
69502;SDS011;56704;54.242;12.442;2022-08-25T15:01:02;6.90;;;2.80;;
69502;SDS011;56704;54.242;12.442;2022-08-25T15:03:30;5.73;;;3.20;;
69502;SDS011;56704;54.242;12.442;2022-08-25T15:05:59;6.32;;;2.45;;
69502;SDS011;56704;54.242;12.442;2022-08-25T15:08:27;4.75;;;2.70;;
69502;SDS011;56704;54.242;12.442;2022-08-25T15:11:12;10.35;;;2.92;;
69502;SDS011;56704;54.242;12.442;2022-08-25T15:13:39;5.50;;;2.97;;